Terminal Aerodrome Forecast
Issued by NWS

Home | Current Version | Previous Version | Text Only | Print | Product List | Glossary Off
Versions: 1 2 3 4 5 6 7 8 9 10 11 12 13 14 15

817
FTUS43 KFGF 232334
TAFBJI
TAF
KBJI 232334Z 2400/2424 15009KT P6SM SCT060 BKN100
     FM240600 15008KT P6SM VCTS BKN050CB
     FM241200 16008KT P6SM BKN100 WS020/20035KT=

USA.gov is the U.S. government's official web portal to all federal, state and local government web resources and services.